createdAt,value
2019-05-29T00:04:55.438Z,8.30
2019-05-29T00:10:18.409Z,7.85
2019-05-29T00:15:40.582Z,7.78
2019-05-29T00:21:02.382Z,8.75
2019-05-29T00:26:23.863Z,7.92
2019-05-29T00:31:45.385Z,8.23
2019-05-29T00:37:06.866Z,8.53
2019-05-29T00:42:28.696Z,8.28
2019-05-29T00:47:50.150Z,7.65
2019-05-29T00:53:12.213Z,7.40
2019-05-29T00:58:34.210Z,8.63
2019-05-29T01:03:55.789Z,7.60
2019-05-29T01:09:17.248Z,8.30
2019-05-29T01:14:49.742Z,8.13
2019-05-29T01:20:03.050Z,7.70
2019-05-29T01:25:24.584Z,7.70
2019-05-29T01:30:46.399Z,7.70
2019-05-29T01:36:08.170Z,8.00
2019-05-29T01:41:29.495Z,7.83
2019-05-29T01:46:51.279Z,7.78
2019-05-29T01:52:12.875Z,8.48
2019-05-29T01:57:34.373Z,8.40
2019-05-29T02:02:55.951Z,8.50
2019-05-29T02:08:18.062Z,8.88
2019-05-29T02:13:39.969Z,8.68
2019-05-29T02:19:01.705Z,8.60
2019-05-29T02:24:23.522Z,9.03
2019-05-29T02:29:44.995Z,8.70
2019-05-29T02:35:07.013Z,9.23
2019-05-29T02:40:30.063Z,9.48
2019-05-29T02:45:54.776Z,9.43
2019-05-29T02:51:15.707Z,10.23
2019-05-29T02:56:37.005Z,9.43
2019-05-29T03:01:59.166Z,9.68
2019-05-29T03:07:22.200Z,10.82
2019-05-29T03:12:43.960Z,10.38
2019-05-29T03:18:05.865Z,10.45
2019-05-29T03:23:29.123Z,10.03
2019-05-29T03:28:51.362Z,9.43
2019-05-29T03:34:13.067Z,9.80
2019-05-29T03:39:34.724Z,9.38
2019-05-29T03:44:56.482Z,9.43
2019-05-29T03:50:26.491Z,9.50
2019-05-29T03:55:49.698Z,9.28
2019-05-29T04:01:11.245Z,9.60
2019-05-29T04:06:33.417Z,9.90
2019-05-29T04:11:55.545Z,9.38
2019-05-29T04:17:19.380Z,9.40
2019-05-29T04:22:43.747Z,9.53
2019-05-29T04:28:07.710Z,9.15
2019-05-29T04:33:30.550Z,9.05
2019-05-29T04:38:53.278Z,9.15
2019-05-29T04:44:14.810Z,8.93
2019-05-29T04:49:37.870Z,8.73
2019-05-29T04:54:59.783Z,8.90
2019-05-29T05:00:21.386Z,8.95
2019-05-29T05:05:43.123Z,9.20
2019-05-29T05:11:05.088Z,8.38
2019-05-29T05:16:26.685Z,8.63
2019-05-29T05:21:48.155Z,8.80
2019-05-29T05:27:09.773Z,9.08
2019-05-29T05:32:32.639Z,9.00
2019-05-29T05:37:54.926Z,8.78
2019-05-29T05:43:24.060Z,9.08
2019-05-29T05:48:41.610Z,9.23
2019-05-29T05:54:03.533Z,9.18
2019-05-29T05:59:25.198Z,10.18
2019-05-29T06:04:46.655Z,10.28
2019-05-29T06:10:08.903Z,9.48
2019-05-29T06:15:32.254Z,10.88
2019-05-29T06:20:54.010Z,11.18
2019-05-29T06:26:15.841Z,10.48
2019-05-29T06:31:37.506Z,10.38
2019-05-29T06:36:59.237Z,10.98
2019-05-29T06:42:21.154Z,11.40
2019-05-29T06:47:44.602Z,10.05
2019-05-29T06:53:06.380Z,10.60
2019-05-29T06:58:28.029Z,10.00
2019-05-29T07:03:50.241Z,9.70
2019-05-29T07:09:12.371Z,9.85
2019-05-29T07:14:33.749Z,9.40
2019-05-29T07:20:03.140Z,9.33
2019-05-29T07:25:19.058Z,10.20
2019-05-29T07:30:44.164Z,9.70
2019-05-29T07:36:04.774Z,9.08
2019-05-29T07:41:27.182Z,9.05
2019-05-29T07:46:49.428Z,8.58
2019-05-29T07:52:11.542Z,8.40
2019-05-29T07:57:33.314Z,9.60
2019-05-29T08:02:54.897Z,8.95
2019-05-29T08:08:16.580Z,9.00
2019-05-29T08:13:39.418Z,9.88
2019-05-29T08:19:01.238Z,8.35
2019-05-29T08:24:24.850Z,8.03
2019-05-29T08:29:47.155Z,7.83
2019-05-29T08:35:09.981Z,8.25
2019-05-29T08:40:31.555Z,7.95
2019-05-29T08:45:53.478Z,7.50
2019-05-29T08:51:14.914Z,7.20
2019-05-29T08:56:36.881Z,8.78
2019-05-29T09:01:58.401Z,8.60
2019-05-29T09:07:20.120Z,7.85
2019-05-29T09:12:41.523Z,7.55
2019-05-29T09:18:03.256Z,7.95
2019-05-29T09:23:26.366Z,8.48
2019-05-29T09:28:47.996Z,8.53
2019-05-29T09:34:09.407Z,8.38
2019-05-29T09:39:31.165Z,7.92
2019-05-29T09:44:52.901Z,7.45
2019-05-29T09:50:15.605Z,6.62
2019-05-29T09:55:37.973Z,7.60
2019-05-29T10:01:18.609Z,7.28
2019-05-29T10:06:23.990Z,6.85
2019-05-29T10:11:45.281Z,7.67
2019-05-29T10:17:11.848Z,7.47
2019-05-29T10:22:31.060Z,7.17
2019-05-29T10:27:52.965Z,7.60
2019-05-29T10:33:14.985Z,8.25
2019-05-29T10:38:36.454Z,8.05
2019-05-29T10:43:58.030Z,8.53
2019-05-29T10:49:19.778Z,7.50
2019-05-29T10:54:41.496Z,6.75
2019-05-29T11:00:03.149Z,6.55
2019-05-29T11:05:24.840Z,7.30
2019-05-29T11:10:47.909Z,6.65
2019-05-29T11:16:09.584Z,6.67
2019-05-29T11:21:31.300Z,6.50
2019-05-29T11:26:54.667Z,6.53
2019-05-29T11:32:16.190Z,6.83
2019-05-29T11:37:37.931Z,6.58
2019-05-29T11:42:59.703Z,6.37
2019-05-29T11:48:21.190Z,5.90
2019-05-29T11:53:42.613Z,6.60
2019-05-29T11:59:05.031Z,7.05
2019-05-29T12:04:27.117Z,8.00
2019-05-29T12:09:49.131Z,6.78
2019-05-29T12:15:15.993Z,5.80
2019-05-29T12:20:35.170Z,6.65
2019-05-29T12:26:16.641Z,5.58
2019-05-29T12:31:20.610Z,5.92
2019-05-29T12:36:42.327Z,8.58
2019-05-29T12:42:04.458Z,6.40
2019-05-29T12:47:26.044Z,7.22
2019-05-29T12:52:48.150Z,6.92
2019-05-29T12:58:09.884Z,6.87
2019-05-29T13:03:31.690Z,6.70
2019-05-29T13:08:54.575Z,7.58
2019-05-29T13:14:16.456Z,6.55
2019-05-29T13:19:38.168Z,6.12
2019-05-29T13:24:59.791Z,7.00
2019-05-29T13:30:21.847Z,7.33
2019-05-29T13:35:43.497Z,6.90
2019-05-29T13:41:06.499Z,7.53
2019-05-29T13:46:30.077Z,6.87
2019-05-29T13:51:51.984Z,7.08
2019-05-29T13:57:13.495Z,5.95
2019-05-29T14:02:35.386Z,6.65
2019-05-29T14:07:56.925Z,7.08
2019-05-29T14:13:18.584Z,7.60
2019-05-29T14:18:40.113Z,6.70
2019-05-29T14:24:07.364Z,6.87
2019-05-29T14:29:26.035Z,6.70
2019-05-29T14:34:49.219Z,6.42
2019-05-29T14:40:12.295Z,7.45
2019-05-29T14:45:33.657Z,6.22
2019-05-29T14:50:55.516Z,7.40
2019-05-29T14:56:17.169Z,6.72
2019-05-29T15:01:38.995Z,6.97
2019-05-29T15:07:00.780Z,9.68
2019-05-29T15:12:22.370Z,6.30
2019-05-29T15:17:44.299Z,6.95
2019-05-29T15:23:07.509Z,5.92
2019-05-29T15:28:30.664Z,7.42
2019-05-29T15:33:52.643Z,7.00
2019-05-29T15:39:17.823Z,6.08
2019-05-29T15:45:18.172Z,6.05
2019-05-29T15:50:41.615Z,6.40
2019-05-29T15:56:18.036Z,6.10
2019-05-29T16:01:27.214Z,6.10
2019-05-29T16:06:49.248Z,6.35
2019-05-29T16:12:10.713Z,6.30
2019-05-29T16:17:32.860Z,5.85
2019-05-29T16:22:54.897Z,5.83
2019-05-29T16:28:17.245Z,5.80
2019-05-29T16:33:38.900Z,5.80
2019-05-29T16:39:00.760Z,5.90
2019-05-29T16:44:27.322Z,6.08
2019-05-29T16:49:45.909Z,5.80
2019-05-29T16:55:07.832Z,6.03
2019-05-29T17:00:29.766Z,6.25
2019-05-29T17:05:51.131Z,6.22
2019-05-29T17:11:12.731Z,6.30
2019-05-29T17:16:34.176Z,5.92
2019-05-29T17:21:56.052Z,6.85
2019-05-29T17:27:18.722Z,8.63
2019-05-29T17:32:43.588Z,7.28
2019-05-29T17:38:05.056Z,6.83
2019-05-29T17:43:28.632Z,6.62
2019-05-29T17:48:50.111Z,7.95
2019-05-29T17:54:11.970Z,7.00
2019-05-29T17:59:33.818Z,7.35
2019-05-29T18:04:55.826Z,5.85
2019-05-29T18:10:19.381Z,5.55
2019-05-29T18:15:42.043Z,5.95
2019-05-29T18:21:03.757Z,7.33
2019-05-29T18:26:27.455Z,7.28
2019-05-29T18:31:49.300Z,7.95
2019-05-29T18:37:11.847Z,6.95
2019-05-29T18:42:33.786Z,6.55
2019-05-29T18:47:55.353Z,7.10
2019-05-29T18:53:16.846Z,6.65
2019-05-29T18:58:38.721Z,6.75
2019-05-29T19:04:00.504Z,6.58
2019-05-29T19:09:29.797Z,5.33
2019-05-29T19:15:26.064Z,6.22
2019-05-29T19:20:43.784Z,5.95
2019-05-29T19:26:05.579Z,5.55
2019-05-29T19:31:29.037Z,5.75
2019-05-29T19:36:51.186Z,6.08
2019-05-29T19:42:13.346Z,6.28
2019-05-29T19:47:35.566Z,6.15
2019-05-29T19:52:56.886Z,5.95
2019-05-29T19:58:18.688Z,6.30
2019-05-29T20:03:40.101Z,5.55
2019-05-29T20:09:01.697Z,5.95
2019-05-29T20:14:23.353Z,6.05
2019-05-29T20:19:45.185Z,5.53
2019-05-29T20:25:07.592Z,5.05
2019-05-29T20:30:30.277Z,5.78
2019-05-29T20:35:51.977Z,5.83
2019-05-29T20:41:13.598Z,5.70
2019-05-29T20:46:35.153Z,5.45
2019-05-29T20:51:56.932Z,5.67
2019-05-29T20:57:18.995Z,5.42
2019-05-29T21:02:42.329Z,5.62
2019-05-29T21:08:04.381Z,5.62
2019-05-29T21:13:26.199Z,5.42
2019-05-29T21:18:47.579Z,5.53
2019-05-29T21:24:09.358Z,5.20
2019-05-29T21:29:31.112Z,5.25
2019-05-29T21:34:53.105Z,4.97
2019-05-29T21:40:15.354Z,4.70
2019-05-29T21:45:36.851Z,4.80
2019-05-29T21:50:58.479Z,4.97
2019-05-29T21:56:20.333Z,5.65
2019-05-29T22:01:42.119Z,5.47
2019-05-29T22:07:04.366Z,5.25
2019-05-29T22:12:25.815Z,5.12
2019-05-29T22:17:47.500Z,5.15
2019-05-29T22:23:09.236Z,5.50
2019-05-29T22:28:31.213Z,5.12
2019-05-29T22:33:53.385Z,5.25
2019-05-29T22:39:15.239Z,5.37
2019-05-29T22:44:36.756Z,5.28
2019-05-29T22:49:59.634Z,5.20
2019-05-29T22:55:21.761Z,4.83
2019-05-29T23:00:43.629Z,5.10
2019-05-29T23:06:05.338Z,4.95
2019-05-29T23:11:27.129Z,5.05
2019-05-29T23:16:48.980Z,5.83
2019-05-29T23:22:10.347Z,5.05
2019-05-29T23:27:32.307Z,5.37
2019-05-29T23:32:54.882Z,4.95
2019-05-29T23:38:16.550Z,5.05
2019-05-29T23:43:38.117Z,4.78
2019-05-29T23:48:59.741Z,5.05
2019-05-29T23:54:21.298Z,5.55
2019-05-29T23:59:42.866Z,6.00
